sensor_id;sensor_type;location;lat;lon;timestamp;P1;durP1;ratioP1;P2;durP2;ratioP2
42754;SDS011;28407;51.830;5.684;2023-04-24T00:01:19;4.80;;;4.40;;
42754;SDS011;28407;51.830;5.684;2023-04-24T00:03:20;4.80;;;4.38;;
42754;SDS011;28407;51.830;5.684;2023-04-24T00:05:21;5.07;;;4.60;;
42754;SDS011;28407;51.830;5.684;2023-04-24T00:07:21;6.30;;;5.70;;
42754;SDS011;28407;51.830;5.684;2023-04-24T00:09:22;5.43;;;4.93;;
42754;SDS011;28407;51.830;5.684;2023-04-24T00:11:24;5.93;;;5.43;;
42754;SDS011;28407;51.830;5.684;2023-04-24T00:13:24;4.78;;;4.30;;
42754;SDS011;28407;51.830;5.684;2023-04-24T00:15:25;5.82;;;5.22;;
42754;SDS011;28407;51.830;5.684;2023-04-24T00:17:26;5.35;;;4.78;;
42754;SDS011;28407;51.830;5.684;2023-04-24T00:19:26;5.25;;;4.22;;
42754;SDS011;28407;51.830;5.684;2023-04-24T00:21:28;4.68;;;4.18;;
42754;SDS011;28407;51.830;5.684;2023-04-24T00:23:30;6.05;;;5.47;;
42754;SDS011;28407;51.830;5.684;2023-04-24T00:25:30;6.97;;;5.88;;
42754;SDS011;28407;51.830;5.684;2023-04-24T00:27:31;7.07;;;6.38;;
42754;SDS011;28407;51.830;5.684;2023-04-24T00:29:32;7.85;;;7.07;;
42754;SDS011;28407;51.830;5.684;2023-04-24T00:31:32;7.00;;;6.40;;
42754;SDS011;28407;51.830;5.684;2023-04-24T00:35:36;6.05;;;5.45;;
42754;SDS011;28407;51.830;5.684;2023-04-24T00:37:36;8.27;;;5.95;;
42754;SDS011;28407;51.830;5.684;2023-04-24T00:39:37;7.32;;;6.53;;
42754;SDS011;28407;51.830;5.684;2023-04-24T00:41:37;7.00;;;6.30;;
42754;SDS011;28407;51.830;5.684;2023-04-24T00:43:38;8.10;;;6.70;;
42754;SDS011;28407;51.830;5.684;2023-04-24T00:45:39;7.70;;;6.90;;
42754;SDS011;28407;51.830;5.684;2023-04-24T00:47:40;8.18;;;6.78;;
42754;SDS011;28407;51.830;5.684;2023-04-24T00:49:42;9.95;;;7.45;;
42754;SDS011;28407;51.830;5.684;2023-04-24T00:51:42;8.40;;;7.50;;
42754;SDS011;28407;51.830;5.684;2023-04-24T00:53:45;8.85;;;7.35;;
42754;SDS011;28407;51.830;5.684;2023-04-24T00:55:46;8.55;;;7.22;;
42754;SDS011;28407;51.830;5.684;2023-04-24T00:57:47;9.18;;;7.00;;
42754;SDS011;28407;51.830;5.684;2023-04-24T00:59:48;8.95;;;7.72;;
42754;SDS011;28407;51.830;5.684;2023-04-24T01:01:49;8.35;;;7.53;;
42754;SDS011;28407;51.830;5.684;2023-04-24T01:03:51;8.95;;;7.53;;
42754;SDS011;28407;51.830;5.684;2023-04-24T01:07:54;9.05;;;8.18;;
42754;SDS011;28407;51.830;5.684;2023-04-24T01:09:56;8.38;;;7.10;;
42754;SDS011;28407;51.830;5.684;2023-04-24T01:11:58;7.63;;;6.85;;
42754;SDS011;28407;51.830;5.684;2023-04-24T01:14:00;8.52;;;7.72;;
42754;SDS011;28407;51.830;5.684;2023-04-24T01:16:01;8.90;;;8.00;;
42754;SDS011;28407;51.830;5.684;2023-04-24T01:18:02;8.75;;;7.85;;
42754;SDS011;28407;51.830;5.684;2023-04-24T01:20:03;8.20;;;7.38;;
42754;SDS011;28407;51.830;5.684;2023-04-24T01:22:10;7.60;;;6.90;;
42754;SDS011;28407;51.830;5.684;2023-04-24T01:24:12;7.97;;;7.18;;
42754;SDS011;28407;51.830;5.684;2023-04-24T01:26:14;7.15;;;6.45;;
42754;SDS011;28407;51.830;5.684;2023-04-24T01:28:17;7.95;;;7.15;;
42754;SDS011;28407;51.830;5.684;2023-04-24T01:30:18;8.38;;;7.57;;
42754;SDS011;28407;51.830;5.684;2023-04-24T01:32:18;8.38;;;7.57;;
42754;SDS011;28407;51.830;5.684;2023-04-24T01:34:20;7.47;;;6.77;;
42754;SDS011;28407;51.830;5.684;2023-04-24T01:36:21;7.70;;;7.00;;
42754;SDS011;28407;51.830;5.684;2023-04-24T01:38:22;8.77;;;7.97;;
42754;SDS011;28407;51.830;5.684;2023-04-24T01:40:23;8.00;;;7.20;;
42754;SDS011;28407;51.830;5.684;2023-04-24T01:42:23;9.18;;;7.78;;
42754;SDS011;28407;51.830;5.684;2023-04-24T01:44:24;8.50;;;7.70;;
42754;SDS011;28407;51.830;5.684;2023-04-24T01:46:25;9.35;;;8.35;;
42754;SDS011;28407;51.830;5.684;2023-04-24T01:48:26;10.68;;;9.68;;
42754;SDS011;28407;51.830;5.684;2023-04-24T01:50:27;10.23;;;9.20;;
42754;SDS011;28407;51.830;5.684;2023-04-24T01:52:28;10.35;;;9.27;;
42754;SDS011;28407;51.830;5.684;2023-04-24T01:54:31;11.10;;;9.80;;
42754;SDS011;28407;51.830;5.684;2023-04-24T01:56:33;11.13;;;10.02;;
42754;SDS011;28407;51.830;5.684;2023-04-24T01:58:37;11.05;;;9.73;;
42754;SDS011;28407;51.830;5.684;2023-04-24T02:00:37;13.40;;;12.10;;
42754;SDS011;28407;51.830;5.684;2023-04-24T02:02:41;12.25;;;10.25;;
42754;SDS011;28407;51.830;5.684;2023-04-24T02:04:42;12.60;;;10.98;;
42754;SDS011;28407;51.830;5.684;2023-04-24T02:06:42;13.93;;;11.23;;
42754;SDS011;28407;51.830;5.684;2023-04-24T02:08:43;12.25;;;10.57;;
42754;SDS011;28407;51.830;5.684;2023-04-24T02:10:44;10.70;;;9.55;;
42754;SDS011;28407;51.830;5.684;2023-04-24T02:12:45;10.60;;;9.52;;
42754;SDS011;28407;51.830;5.684;2023-04-24T02:14:45;10.65;;;9.63;;
42754;SDS011;28407;51.830;5.684;2023-04-24T02:16:46;12.63;;;9.70;;
42754;SDS011;28407;51.830;5.684;2023-04-24T02:18:46;10.18;;;9.15;;
42754;SDS011;28407;51.830;5.684;2023-04-24T02:20:47;9.70;;;8.57;;
42754;SDS011;28407;51.830;5.684;2023-04-24T02:22:48;10.07;;;8.70;;
42754;SDS011;28407;51.830;5.684;2023-04-24T02:24:48;10.00;;;9.00;;
42754;SDS011;28407;51.830;5.684;2023-04-24T02:26:49;9.77;;;8.68;;
42754;SDS011;28407;51.830;5.684;2023-04-24T02:28:50;9.52;;;8.55;;
42754;SDS011;28407;51.830;5.684;2023-04-24T02:30:51;10.30;;;9.18;;
42754;SDS011;28407;51.830;5.684;2023-04-24T02:32:51;9.05;;;8.07;;
42754;SDS011;28407;51.830;5.684;2023-04-24T02:34:52;8.95;;;8.05;;
42754;SDS011;28407;51.830;5.684;2023-04-24T02:36:52;9.40;;;8.50;;
42754;SDS011;28407;51.830;5.684;2023-04-24T02:38:54;9.57;;;8.57;;
42754;SDS011;28407;51.830;5.684;2023-04-24T02:40:54;9.27;;;8.27;;
42754;SDS011;28407;51.830;5.684;2023-04-24T02:42:55;10.02;;;9.02;;
42754;SDS011;28407;51.830;5.684;2023-04-24T02:44:58;11.10;;;9.00;;
42754;SDS011;28407;51.830;5.684;2023-04-24T02:46:58;10.45;;;9.35;;
42754;SDS011;28407;51.830;5.684;2023-04-24T02:48:59;10.45;;;9.27;;
42754;SDS011;28407;51.830;5.684;2023-04-24T02:51:00;9.52;;;8.52;;
42754;SDS011;28407;51.830;5.684;2023-04-24T02:53:00;10.32;;;9.30;;
42754;SDS011;28407;51.830;5.684;2023-04-24T02:55:01;9.50;;;8.60;;
42754;SDS011;28407;51.830;5.684;2023-04-24T02:57:02;11.73;;;9.38;;
42754;SDS011;28407;51.830;5.684;2023-04-24T02:59:03;10.18;;;9.07;;
42754;SDS011;28407;51.830;5.684;2023-04-24T03:01:04;11.75;;;10.38;;
42754;SDS011;28407;51.830;5.684;2023-04-24T03:03:05;10.98;;;9.18;;
42754;SDS011;28407;51.830;5.684;2023-04-24T03:05:06;13.13;;;10.75;;
42754;SDS011;28407;51.830;5.684;2023-04-24T03:07:07;12.70;;;10.77;;
42754;SDS011;28407;51.830;5.684;2023-04-24T03:09:08;12.18;;;10.25;;
42754;SDS011;28407;51.830;5.684;2023-04-24T03:11:08;11.27;;;10.07;;
42754;SDS011;28407;51.830;5.684;2023-04-24T03:13:09;11.82;;;10.15;;
42754;SDS011;28407;51.830;5.684;2023-04-24T03:15:10;13.18;;;11.32;;
42754;SDS011;28407;51.830;5.684;2023-04-24T03:17:11;13.88;;;12.23;;
42754;SDS011;28407;51.830;5.684;2023-04-24T03:19:11;12.32;;;10.85;;
42754;SDS011;28407;51.830;5.684;2023-04-24T03:21:23;12.75;;;11.18;;
42754;SDS011;28407;51.830;5.684;2023-04-24T03:23:24;14.50;;;12.32;;
42754;SDS011;28407;51.830;5.684;2023-04-24T03:25:25;15.30;;;13.70;;
42754;SDS011;28407;51.830;5.684;2023-04-24T03:27:26;15.75;;;13.15;;
42754;SDS011;28407;51.830;5.684;2023-04-24T03:29:34;13.57;;;11.52;;
42754;SDS011;28407;51.830;5.684;2023-04-24T03:31:35;14.60;;;12.35;;
42754;SDS011;28407;51.830;5.684;2023-04-24T03:33:36;14.20;;;12.07;;
42754;SDS011;28407;51.830;5.684;2023-04-24T03:35:36;16.70;;;12.50;;
42754;SDS011;28407;51.830;5.684;2023-04-24T03:37:41;12.93;;;11.50;;
42754;SDS011;28407;51.830;5.684;2023-04-24T03:40:02;13.93;;;12.13;;
42754;SDS011;28407;51.830;5.684;2023-04-24T03:42:03;14.13;;;12.02;;
42754;SDS011;28407;51.830;5.684;2023-04-24T03:44:15;14.10;;;11.57;;
42754;SDS011;28407;51.830;5.684;2023-04-24T03:46:16;12.75;;;11.25;;
42754;SDS011;28407;51.830;5.684;2023-04-24T03:48:23;12.50;;;11.18;;
42754;SDS011;28407;51.830;5.684;2023-04-24T03:50:24;13.55;;;11.07;;
42754;SDS011;28407;51.830;5.684;2023-04-24T03:54:27;12.25;;;11.10;;
42754;SDS011;28407;51.830;5.684;2023-04-24T03:56:28;12.50;;;11.15;;
42754;SDS011;28407;51.830;5.684;2023-04-24T03:58:29;12.95;;;11.20;;
42754;SDS011;28407;51.830;5.684;2023-04-24T04:00:30;15.18;;;12.98;;
42754;SDS011;28407;51.830;5.684;2023-04-24T04:02:52;14.27;;;11.13;;
42754;SDS011;28407;51.830;5.684;2023-04-24T04:04:52;14.32;;;12.93;;
42754;SDS011;28407;51.830;5.684;2023-04-24T04:06:53;13.73;;;12.20;;
42754;SDS011;28407;51.830;5.684;2023-04-24T04:08:54;12.13;;;10.65;;
42754;SDS011;28407;51.830;5.684;2023-04-24T04:10:55;12.30;;;11.02;;
42754;SDS011;28407;51.830;5.684;2023-04-24T04:12:57;14.95;;;13.18;;
42754;SDS011;28407;51.830;5.684;2023-04-24T04:14:57;13.05;;;10.90;;
42754;SDS011;28407;51.830;5.684;2023-04-24T04:16:58;13.02;;;11.63;;
42754;SDS011;28407;51.830;5.684;2023-04-24T04:18:59;13.10;;;11.60;;
42754;SDS011;28407;51.830;5.684;2023-04-24T04:21:00;12.20;;;10.93;;
42754;SDS011;28407;51.830;5.684;2023-04-24T04:23:02;14.02;;;11.57;;
42754;SDS011;28407;51.830;5.684;2023-04-24T04:25:19;11.63;;;10.43;;
42754;SDS011;28407;51.830;5.684;2023-04-24T04:27:20;12.20;;;10.80;;
42754;SDS011;28407;51.830;5.684;2023-04-24T04:29:32;12.20;;;10.65;;
42754;SDS011;28407;51.830;5.684;2023-04-24T04:31:35;12.52;;;10.77;;
42754;SDS011;28407;51.830;5.684;2023-04-24T04:33:41;11.98;;;10.40;;
42754;SDS011;28407;51.830;5.684;2023-04-24T04:35:43;12.13;;;10.93;;
42754;SDS011;28407;51.830;5.684;2023-04-24T04:37:43;12.00;;;10.85;;
42754;SDS011;28407;51.830;5.684;2023-04-24T04:39:54;13.18;;;11.95;;
42754;SDS011;28407;51.830;5.684;2023-04-24T04:41:57;11.27;;;10.10;;
42754;SDS011;28407;51.830;5.684;2023-04-24T04:44:02;11.25;;;9.70;;
42754;SDS011;28407;51.830;5.684;2023-04-24T04:46:05;11.18;;;9.48;;
42754;SDS011;28407;51.830;5.684;2023-04-24T04:48:40;11.23;;;9.95;;
42754;SDS011;28407;51.830;5.684;2023-04-24T04:50:41;10.02;;;8.15;;
42754;SDS011;28407;51.830;5.684;2023-04-24T04:52:42;10.52;;;9.38;;
42754;SDS011;28407;51.830;5.684;2023-04-24T04:54:53;10.10;;;9.10;;
42754;SDS011;28407;51.830;5.684;2023-04-24T04:56:55;10.65;;;9.35;;
42754;SDS011;28407;51.830;5.684;2023-04-24T04:58:57;10.93;;;9.82;;
42754;SDS011;28407;51.830;5.684;2023-04-24T05:00:59;10.00;;;8.98;;
42754;SDS011;28407;51.830;5.684;2023-04-24T05:03:04;10.05;;;9.07;;
42754;SDS011;28407;51.830;5.684;2023-04-24T05:05:05;10.32;;;9.23;;
42754;SDS011;28407;51.830;5.684;2023-04-24T05:07:06;9.40;;;8.50;;
42754;SDS011;28407;51.830;5.684;2023-04-24T05:09:10;9.48;;;8.55;;
42754;SDS011;28407;51.830;5.684;2023-04-24T05:11:20;10.82;;;9.18;;
42754;SDS011;28407;51.830;5.684;2023-04-24T05:13:21;9.30;;;8.18;;
42754;SDS011;28407;51.830;5.684;2023-04-24T05:15:21;10.35;;;9.00;;
42754;SDS011;28407;51.830;5.684;2023-04-24T05:17:22;9.43;;;8.40;;
42754;SDS011;28407;51.830;5.684;2023-04-24T05:21:25;8.05;;;7.25;;
42754;SDS011;28407;51.830;5.684;2023-04-24T05:23:26;8.55;;;7.63;;
42754;SDS011;28407;51.830;5.684;2023-04-24T05:25:29;7.55;;;6.80;;
42754;SDS011;28407;51.830;5.684;2023-04-24T05:27:38;8.38;;;7.57;;
42754;SDS011;28407;51.830;5.684;2023-04-24T05:29:45;8.43;;;6.60;;
42754;SDS011;28407;51.830;5.684;2023-04-24T05:31:47;8.18;;;7.25;;
42754;SDS011;28407;51.830;5.684;2023-04-24T05:33:48;6.78;;;6.15;;
42754;SDS011;28407;51.830;5.684;2023-04-24T05:35:49;6.72;;;6.00;;
42754;SDS011;28407;51.830;5.684;2023-04-24T05:37:49;6.07;;;5.53;;
42754;SDS011;28407;51.830;5.684;2023-04-24T05:39:51;5.30;;;4.80;;
42754;SDS011;28407;51.830;5.684;2023-04-24T05:41:52;5.72;;;5.10;;
42754;SDS011;28407;51.830;5.684;2023-04-24T05:43:52;5.07;;;4.47;;
42754;SDS011;28407;51.830;5.684;2023-04-24T05:45:54;5.38;;;4.65;;
42754;SDS011;28407;51.830;5.684;2023-04-24T05:47:55;5.55;;;4.63;;
42754;SDS011;28407;51.830;5.684;2023-04-24T05:49:56;5.25;;;4.00;;
42754;SDS011;28407;51.830;5.684;2023-04-24T05:51:57;6.32;;;5.07;;
42754;SDS011;28407;51.830;5.684;2023-04-24T05:53:57;4.25;;;3.85;;
42754;SDS011;28407;51.830;5.684;2023-04-24T05:55:59;4.88;;;3.80;;
42754;SDS011;28407;51.830;5.684;2023-04-24T05:58:00;4.72;;;4.18;;
42754;SDS011;28407;51.830;5.684;2023-04-24T06:00:02;6.57;;;3.80;;
42754;SDS011;28407;51.830;5.684;2023-04-24T06:02:13;5.60;;;3.53;;
42754;SDS011;28407;51.830;5.684;2023-04-24T06:04:14;3.35;;;2.65;;
42754;SDS011;28407;51.830;5.684;2023-04-24T06:06:14;3.78;;;3.15;;
42754;SDS011;28407;51.830;5.684;2023-04-24T06:08:15;3.60;;;3.30;;
42754;SDS011;28407;51.830;5.684;2023-04-24T06:12:18;2.63;;;2.42;;
42754;SDS011;28407;51.830;5.684;2023-04-24T06:14:33;2.53;;;2.28;;
42754;SDS011;28407;51.830;5.684;2023-04-24T06:16:48;2.63;;;2.30;;
42754;SDS011;28407;51.830;5.684;2023-04-24T06:19:00;2.70;;;2.50;;
42754;SDS011;28407;51.830;5.684;2023-04-24T06:21:01;2.63;;;2.30;;
42754;SDS011;28407;51.830;5.684;2023-04-24T06:23:03;2.15;;;1.98;;
42754;SDS011;28407;51.830;5.684;2023-04-24T06:25:06;2.70;;;2.50;;
42754;SDS011;28407;51.830;5.684;2023-04-24T06:27:07;2.65;;;2.10;;
42754;SDS011;28407;51.830;5.684;2023-04-24T06:29:08;1.98;;;1.85;;
42754;SDS011;28407;51.830;5.684;2023-04-24T06:31:09;2.10;;;2.00;;
42754;SDS011;28407;51.830;5.684;2023-04-24T06:33:10;2.03;;;1.90;;
42754;SDS011;28407;51.830;5.684;2023-04-24T06:35:11;1.67;;;1.58;;
42754;SDS011;28407;51.830;5.684;2023-04-24T06:37:12;1.85;;;1.75;;
42754;SDS011;28407;51.830;5.684;2023-04-24T06:39:12;1.80;;;1.70;;
42754;SDS011;28407;51.830;5.684;2023-04-24T06:41:13;1.58;;;1.48;;
42754;SDS011;28407;51.830;5.684;2023-04-24T06:43:14;2.22;;;1.80;;
42754;SDS011;28407;51.830;5.684;2023-04-24T06:45:15;1.95;;;1.77;;
42754;SDS011;28407;51.830;5.684;2023-04-24T06:47:15;2.80;;;1.88;;
42754;SDS011;28407;51.830;5.684;2023-04-24T06:49:16;1.85;;;1.67;;
42754;SDS011;28407;51.830;5.684;2023-04-24T06:51:17;2.45;;;1.77;;
42754;SDS011;28407;51.830;5.684;2023-04-24T06:53:18;2.58;;;1.60;;
42754;SDS011;28407;51.830;5.684;2023-04-24T06:55:18;1.60;;;1.50;;
42754;SDS011;28407;51.830;5.684;2023-04-24T06:57:19;4.10;;;1.95;;
42754;SDS011;28407;51.830;5.684;2023-04-24T06:59:20;2.00;;;1.60;;
42754;SDS011;28407;51.830;5.684;2023-04-24T07:01:21;3.00;;;1.75;;
42754;SDS011;28407;51.830;5.684;2023-04-24T07:03:21;1.90;;;1.67;;
42754;SDS011;28407;51.830;5.684;2023-04-24T07:05:22;1.80;;;1.70;;
42754;SDS011;28407;51.830;5.684;2023-04-24T07:07:23;2.25;;;1.70;;
42754;SDS011;28407;51.830;5.684;2023-04-24T07:09:24;1.95;;;1.60;;
42754;SDS011;28407;51.830;5.684;2023-04-24T07:11:25;1.90;;;1.80;;
42754;SDS011;28407;51.830;5.684;2023-04-24T07:13:29;2.03;;;1.65;;
42754;SDS011;28407;51.830;5.684;2023-04-24T07:15:29;2.00;;;1.55;;
42754;SDS011;28407;51.830;5.684;2023-04-24T07:17:30;2.10;;;1.73;;
42754;SDS011;28407;51.830;5.684;2023-04-24T07:19:32;2.05;;;1.70;;
42754;SDS011;28407;51.830;5.684;2023-04-24T07:21:33;1.60;;;1.50;;
42754;SDS011;28407;51.830;5.684;2023-04-24T07:23:34;1.70;;;1.60;;
42754;SDS011;28407;51.830;5.684;2023-04-24T07:25:34;2.20;;;1.90;;
42754;SDS011;28407;51.830;5.684;2023-04-24T07:27:35;3.08;;;2.10;;
42754;SDS011;28407;51.830;5.684;2023-04-24T07:29:36;2.13;;;2.00;;
42754;SDS011;28407;51.830;5.684;2023-04-24T07:31:38;2.95;;;2.47;;
42754;SDS011;28407;51.830;5.684;2023-04-24T07:33:38;2.78;;;2.50;;
42754;SDS011;28407;51.830;5.684;2023-04-24T07:35:39;3.90;;;2.80;;
42754;SDS011;28407;51.830;5.684;2023-04-24T07:37:40;2.80;;;2.60;;
42754;SDS011;28407;51.830;5.684;2023-04-24T07:39:45;4.15;;;3.28;;
42754;SDS011;28407;51.830;5.684;2023-04-24T07:41:46;5.55;;;5.05;;
42754;SDS011;28407;51.830;5.684;2023-04-24T07:43:46;4.22;;;3.53;;
42754;SDS011;28407;51.830;5.684;2023-04-24T07:45:47;5.05;;;4.22;;
42754;SDS011;28407;51.830;5.684;2023-04-24T07:47:48;6.80;;;4.20;;
42754;SDS011;28407;51.830;5.684;2023-04-24T07:49:48;6.70;;;4.97;;
42754;SDS011;28407;51.830;5.684;2023-04-24T07:51:49;5.45;;;4.38;;
42754;SDS011;28407;51.830;5.684;2023-04-24T07:53:50;5.55;;;5.05;;
42754;SDS011;28407;51.830;5.684;2023-04-24T07:55:50;5.72;;;4.55;;
42754;SDS011;28407;51.830;5.684;2023-04-24T07:57:51;5.63;;;4.65;;
42754;SDS011;28407;51.830;5.684;2023-04-24T07:59:52;8.15;;;4.68;;
42754;SDS011;28407;51.830;5.684;2023-04-24T08:01:52;7.30;;;5.82;;
42754;SDS011;28407;51.830;5.684;2023-04-24T08:03:54;6.88;;;4.68;;
42754;SDS011;28407;51.830;5.684;2023-04-24T08:05:54;5.95;;;4.05;;
42754;SDS011;28407;51.830;5.684;2023-04-24T08:07:55;5.72;;;4.10;;
42754;SDS011;28407;51.830;5.684;2023-04-24T08:09:55;5.85;;;5.18;;
42754;SDS011;28407;51.830;5.684;2023-04-24T08:11:56;5.95;;;4.38;;
42754;SDS011;28407;51.830;5.684;2023-04-24T08:13:57;5.82;;;5.22;;
42754;SDS011;28407;51.830;5.684;2023-04-24T08:15:57;6.70;;;4.95;;
42754;SDS011;28407;51.830;5.684;2023-04-24T08:17:58;7.43;;;4.40;;
42754;SDS011;28407;51.830;5.684;2023-04-24T08:19:58;5.07;;;4.25;;
42754;SDS011;28407;51.830;5.684;2023-04-24T08:22:01;4.78;;;4.28;;
42754;SDS011;28407;51.830;5.684;2023-04-24T08:24:04;5.55;;;4.50;;
42754;SDS011;28407;51.830;5.684;2023-04-24T08:26:07;5.80;;;4.30;;
42754;SDS011;28407;51.830;5.684;2023-04-24T08:28:08;5.78;;;4.25;;
42754;SDS011;28407;51.830;5.684;2023-04-24T08:30:10;6.95;;;4.18;;
42754;SDS011;28407;51.830;5.684;2023-04-24T08:32:11;6.78;;;3.80;;
42754;SDS011;28407;51.830;5.684;2023-04-24T08:34:12;8.82;;;4.25;;
42754;SDS011;28407;51.830;5.684;2023-04-24T08:36:12;5.60;;;3.65;;
42754;SDS011;28407;51.830;5.684;2023-04-24T08:38:13;7.78;;;3.90;;
42754;SDS011;28407;51.830;5.684;2023-04-24T08:40:14;6.18;;;3.50;;
42754;SDS011;28407;51.830;5.684;2023-04-24T08:42:16;7.35;;;4.78;;
42754;SDS011;28407;51.830;5.684;2023-04-24T08:44:18;8.02;;;3.88;;
42754;SDS011;28407;51.830;5.684;2023-04-24T08:46:19;7.53;;;4.78;;
42754;SDS011;28407;51.830;5.684;2023-04-24T08:48:22;7.38;;;3.65;;
42754;SDS011;28407;51.830;5.684;2023-04-24T08:50:23;5.03;;;3.65;;
42754;SDS011;28407;51.830;5.684;2023-04-24T08:52:24;9.23;;;5.20;;
42754;SDS011;28407;51.830;5.684;2023-04-24T08:54:25;8.20;;;3.80;;
42754;SDS011;28407;51.830;5.684;2023-04-24T08:56:26;4.57;;;3.00;;
42754;SDS011;28407;51.830;5.684;2023-04-24T08:58:29;8.63;;;3.13;;
42754;SDS011;28407;51.830;5.684;2023-04-24T09:00:33;7.07;;;3.10;;
42754;SDS011;28407;51.830;5.684;2023-04-24T09:02:33;5.35;;;3.10;;
42754;SDS011;28407;51.830;5.684;2023-04-24T09:04:34;5.38;;;3.05;;
42754;SDS011;28407;51.830;5.684;2023-04-24T09:06:36;5.93;;;3.50;;
42754;SDS011;28407;51.830;5.684;2023-04-24T09:08:37;7.72;;;4.78;;
42754;SDS011;28407;51.830;5.684;2023-04-24T09:10:40;4.93;;;3.38;;
42754;SDS011;28407;51.830;5.684;2023-04-24T09:12:41;8.00;;;3.67;;
42754;SDS011;28407;51.830;5.684;2023-04-24T09:14:42;7.63;;;2.70;;
42754;SDS011;28407;51.830;5.684;2023-04-24T09:16:45;3.63;;;2.55;;
42754;SDS011;28407;51.830;5.684;2023-04-24T09:18:46;14.60;;;5.03;;
42754;SDS011;28407;51.830;5.684;2023-04-24T09:21:03;5.25;;;2.55;;
42754;SDS011;28407;51.830;5.684;2023-04-24T09:23:07;5.43;;;2.78;;
42754;SDS011;28407;51.830;5.684;2023-04-24T09:25:10;5.78;;;2.70;;
42754;SDS011;28407;51.830;5.684;2023-04-24T09:27:12;3.53;;;2.50;;
42754;SDS011;28407;51.830;5.684;2023-04-24T09:31:17;6.50;;;2.60;;
42754;SDS011;28407;51.830;5.684;2023-04-24T09:33:21;5.70;;;2.92;;
42754;SDS011;28407;51.830;5.684;2023-04-24T09:35:22;4.00;;;2.30;;
42754;SDS011;28407;51.830;5.684;2023-04-24T09:37:28;3.25;;;2.10;;
42754;SDS011;28407;51.830;5.684;2023-04-24T09:39:29;5.97;;;2.70;;
42754;SDS011;28407;51.830;5.684;2023-04-24T09:41:31;3.65;;;2.65;;
42754;SDS011;28407;51.830;5.684;2023-04-24T09:43:33;6.22;;;3.22;;
42754;SDS011;28407;51.830;5.684;2023-04-24T09:45:37;3.58;;;2.53;;
42754;SDS011;28407;51.830;5.684;2023-04-24T09:47:39;4.68;;;2.25;;
42754;SDS011;28407;51.830;5.684;2023-04-24T09:49:41;6.03;;;3.17;;
42754;SDS011;28407;51.830;5.684;2023-04-24T09:51:43;3.83;;;2.67;;
42754;SDS011;28407;51.830;5.684;2023-04-24T09:53:47;3.60;;;2.33;;
42754;SDS011;28407;51.830;5.684;2023-04-24T09:55:51;6.18;;;2.60;;
42754;SDS011;28407;51.830;5.684;2023-04-24T09:57:54;5.40;;;2.13;;
42754;SDS011;28407;51.830;5.684;2023-04-24T09:59:56;4.75;;;2.50;;
42754;SDS011;28407;51.830;5.684;2023-04-24T10:01:57;5.05;;;2.30;;
42754;SDS011;28407;51.830;5.684;2023-04-24T10:06:01;4.72;;;3.15;;
42754;SDS011;28407;51.830;5.684;2023-04-24T10:08:09;3.75;;;2.25;;
42754;SDS011;28407;51.830;5.684;2023-04-24T10:12:11;4.40;;;2.30;;
42754;SDS011;28407;51.830;5.684;2023-04-24T10:14:13;4.57;;;2.40;;
42754;SDS011;28407;51.830;5.684;2023-04-24T10:16:16;3.85;;;2.40;;
42754;SDS011;28407;51.830;5.684;2023-04-24T10:18:16;4.45;;;2.05;;
42754;SDS011;28407;51.830;5.684;2023-04-24T10:20:22;4.75;;;2.95;;
42754;SDS011;28407;51.830;5.684;2023-04-24T10:22:25;2.35;;;2.15;;
42754;SDS011;28407;51.830;5.684;2023-04-24T10:24:26;3.85;;;2.30;;
42754;SDS011;28407;51.830;5.684;2023-04-24T10:26:29;3.45;;;2.45;;
42754;SDS011;28407;51.830;5.684;2023-04-24T10:28:30;2.72;;;2.30;;
42754;SDS011;28407;51.830;5.684;2023-04-24T10:30:32;4.75;;;2.08;;
42754;SDS011;28407;51.830;5.684;2023-04-24T10:32:37;2.47;;;2.25;;
42754;SDS011;28407;51.830;5.684;2023-04-24T10:34:38;2.67;;;1.95;;
42754;SDS011;28407;51.830;5.684;2023-04-24T10:36:39;3.15;;;2.15;;
42754;SDS011;28407;51.830;5.684;2023-04-24T10:38:43;3.28;;;2.03;;
42754;SDS011;28407;51.830;5.684;2023-04-24T10:40:46;4.10;;;2.63;;
42754;SDS011;28407;51.830;5.684;2023-04-24T10:42:48;2.05;;;1.80;;
42754;SDS011;28407;51.830;5.684;2023-04-24T10:44:51;2.75;;;2.05;;
42754;SDS011;28407;51.830;5.684;2023-04-24T10:46:53;4.05;;;2.08;;
42754;SDS011;28407;51.830;5.684;2023-04-24T10:48:55;2.17;;;1.98;;
42754;SDS011;28407;51.830;5.684;2023-04-24T10:50:56;2.17;;;1.88;;
42754;SDS011;28407;51.830;5.684;2023-04-24T10:53:07;2.70;;;1.90;;
42754;SDS011;28407;51.830;5.684;2023-04-24T10:55:14;2.40;;;1.70;;
42754;SDS011;28407;51.830;5.684;2023-04-24T10:59:26;2.08;;;1.85;;
42754;SDS011;28407;51.830;5.684;2023-04-24T11:01:28;4.43;;;2.45;;
42754;SDS011;28407;51.830;5.684;2023-04-24T11:03:31;3.38;;;1.77;;
42754;SDS011;28407;51.830;5.684;2023-04-24T11:08:14;3.45;;;2.00;;
42754;SDS011;28407;51.830;5.684;2023-04-24T11:10:26;3.22;;;1.60;;
42754;SDS011;28407;51.830;5.684;2023-04-24T11:12:26;1.98;;;1.70;;
42754;SDS011;28407;51.830;5.684;2023-04-24T11:14:27;2.95;;;1.92;;
42754;SDS011;28407;51.830;5.684;2023-04-24T11:21:09;2.88;;;2.53;;
42754;SDS011;28407;51.830;5.684;2023-04-24T11:23:12;2.10;;;1.80;;
42754;SDS011;28407;51.830;5.684;2023-04-24T11:25:13;2.57;;;1.90;;
42754;SDS011;28407;51.830;5.684;2023-04-24T11:27:17;1.67;;;1.58;;
42754;SDS011;28407;51.830;5.684;2023-04-24T11:29:22;4.32;;;2.03;;
42754;SDS011;28407;51.830;5.684;2023-04-24T11:31:38;3.42;;;1.70;;
42754;SDS011;28407;51.830;5.684;2023-04-24T11:33:41;3.35;;;1.95;;
42754;SDS011;28407;51.830;5.684;2023-04-24T11:35:41;4.43;;;2.35;;
42754;SDS011;28407;51.830;5.684;2023-04-24T11:39:52;3.15;;;1.80;;
42754;SDS011;28407;51.830;5.684;2023-04-24T11:41:54;2.08;;;1.58;;
42754;SDS011;28407;51.830;5.684;2023-04-24T11:44:03;1.80;;;1.65;;
42754;SDS011;28407;51.830;5.684;2023-04-24T11:46:09;1.60;;;1.50;;
42754;SDS011;28407;51.830;5.684;2023-04-24T11:48:09;3.85;;;1.70;;
42754;SDS011;28407;51.830;5.684;2023-04-24T11:50:11;2.90;;;1.95;;
42754;SDS011;28407;51.830;5.684;2023-04-24T11:52:15;2.15;;;1.50;;
42754;SDS011;28407;51.830;5.684;2023-04-24T11:54:15;2.88;;;1.58;;
42754;SDS011;28407;51.830;5.684;2023-04-24T11:56:19;3.13;;;1.92;;
42754;SDS011;28407;51.830;5.684;2023-04-24T11:58:23;1.63;;;1.52;;
42754;SDS011;28407;51.830;5.684;2023-04-24T12:00:27;1.67;;;1.33;;
42754;SDS011;28407;51.830;5.684;2023-04-24T12:02:29;4.00;;;1.80;;
42754;SDS011;28407;51.830;5.684;2023-04-24T12:04:37;2.75;;;1.50;;
42754;SDS011;28407;51.830;5.684;2023-04-24T12:09:02;2.72;;;1.67;;
42754;SDS011;28407;51.830;5.684;2023-04-24T12:11:03;1.83;;;1.50;;
42754;SDS011;28407;51.830;5.684;2023-04-24T12:13:08;1.88;;;1.77;;
42754;SDS011;28407;51.830;5.684;2023-04-24T12:15:11;3.38;;;1.52;;
42754;SDS011;28407;51.830;5.684;2023-04-24T12:17:12;1.53;;;1.43;;
42754;SDS011;28407;51.830;5.684;2023-04-24T12:19:17;1.50;;;1.40;;
42754;SDS011;28407;51.830;5.684;2023-04-24T12:21:22;2.33;;;1.80;;
42754;SDS011;28407;51.830;5.684;2023-04-24T12:23:35;3.53;;;2.47;;
42754;SDS011;28407;51.830;5.684;2023-04-24T12:25:38;1.52;;;1.42;;
42754;SDS011;28407;51.830;5.684;2023-04-24T12:27:39;1.58;;;1.40;;
42754;SDS011;28407;51.830;5.684;2023-04-24T12:29:58;2.20;;;1.70;;
42754;SDS011;28407;51.830;5.684;2023-04-24T12:31:59;1.67;;;1.58;;
42754;SDS011;28407;51.830;5.684;2023-04-24T12:34:00;3.53;;;2.65;;
42754;SDS011;28407;51.830;5.684;2023-04-24T12:36:01;2.75;;;1.55;;
42754;SDS011;28407;51.830;5.684;2023-04-24T12:38:08;2.90;;;1.65;;
42754;SDS011;28407;51.830;5.684;2023-04-24T12:40:10;1.83;;;1.63;;
42754;SDS011;28407;51.830;5.684;2023-04-24T12:42:12;2.03;;;1.70;;
42754;SDS011;28407;51.830;5.684;2023-04-24T12:44:12;1.70;;;1.45;;